sensor_id;sensor_type;location;lat;lon;timestamp;P1;durP1;ratioP1;P2;durP2;ratioP2
78838;SDS011;68405;47.190;27.558;2024-03-02T00:01:16;18.60;;;8.80;;
78838;SDS011;68405;47.190;27.558;2024-03-02T00:03:47;19.30;;;11.20;;
78838;SDS011;68405;47.190;27.558;2024-03-02T00:08:47;16.00;;;9.80;;
78838;SDS011;68405;47.190;27.558;2024-03-02T00:11:16;19.50;;;11.40;;
78838;SDS011;68405;47.190;27.558;2024-03-02T00:13:45;19.50;;;9.30;;
78838;SDS011;68405;47.190;27.558;2024-03-02T00:16:15;19.50;;;10.80;;
78838;SDS011;68405;47.190;27.558;2024-03-02T00:18:45;16.90;;;10.20;;
78838;SDS011;68405;47.190;27.558;2024-03-02T00:21:14;16.50;;;10.50;;
78838;SDS011;68405;47.190;27.558;2024-03-02T00:23:47;15.80;;;8.80;;
78838;SDS011;68405;47.190;27.558;2024-03-02T00:26:18;21.30;;;12.10;;
78838;SDS011;68405;47.190;27.558;2024-03-02T00:28:47;17.80;;;10.80;;
78838;SDS011;68405;47.190;27.558;2024-03-02T00:31:18;14.50;;;8.10;;
78838;SDS011;68405;47.190;27.558;2024-03-02T00:33:48;16.10;;;9.20;;
78838;SDS011;68405;47.190;27.558;2024-03-02T00:36:22;18.60;;;10.50;;
78838;SDS011;68405;47.190;27.558;2024-03-02T00:38:52;16.70;;;9.20;;
78838;SDS011;68405;47.190;27.558;2024-03-02T00:41:22;16.10;;;9.70;;
78838;SDS011;68405;47.190;27.558;2024-03-02T00:43:58;17.60;;;7.80;;
78838;SDS011;68405;47.190;27.558;2024-03-02T00:46:29;20.80;;;11.60;;
78838;SDS011;68405;47.190;27.558;2024-03-02T00:49:00;17.20;;;9.00;;
78838;SDS011;68405;47.190;27.558;2024-03-02T00:51:31;18.70;;;10.10;;
78838;SDS011;68405;47.190;27.558;2024-03-02T00:54:03;17.30;;;9.70;;
78838;SDS011;68405;47.190;27.558;2024-03-02T00:56:34;24.50;;;10.90;;
78838;SDS011;68405;47.190;27.558;2024-03-02T00:59:03;18.20;;;11.40;;
78838;SDS011;68405;47.190;27.558;2024-03-02T01:01:32;18.40;;;8.80;;
78838;SDS011;68405;47.190;27.558;2024-03-02T01:04:00;22.20;;;12.80;;
78838;SDS011;68405;47.190;27.558;2024-03-02T01:06:30;21.80;;;11.70;;
78838;SDS011;68405;47.190;27.558;2024-03-02T01:08:59;18.50;;;10.50;;
78838;SDS011;68405;47.190;27.558;2024-03-02T01:11:29;19.90;;;11.80;;
78838;SDS011;68405;47.190;27.558;2024-03-02T01:13:58;14.80;;;9.00;;
78838;SDS011;68405;47.190;27.558;2024-03-02T01:16:27;13.30;;;8.30;;
78838;SDS011;68405;47.190;27.558;2024-03-02T01:18:55;20.80;;;11.50;;
78838;SDS011;68405;47.190;27.558;2024-03-02T01:21:24;22.10;;;11.70;;
78838;SDS011;68405;47.190;27.558;2024-03-02T01:23:53;12.60;;;8.90;;
78838;SDS011;68405;47.190;27.558;2024-03-02T01:28:49;14.30;;;8.80;;
78838;SDS011;68405;47.190;27.558;2024-03-02T01:33:46;20.30;;;10.80;;
78838;SDS011;68405;47.190;27.558;2024-03-02T01:36:15;20.40;;;10.80;;
78838;SDS011;68405;47.190;27.558;2024-03-02T01:38:43;16.00;;;8.60;;
78838;SDS011;68405;47.190;27.558;2024-03-02T01:41:12;15.50;;;9.70;;
78838;SDS011;68405;47.190;27.558;2024-03-02T01:43:41;16.70;;;11.30;;
78838;SDS011;68405;47.190;27.558;2024-03-02T01:46:10;22.50;;;9.50;;
78838;SDS011;68405;47.190;27.558;2024-03-02T01:48:39;20.40;;;12.40;;
78838;SDS011;68405;47.190;27.558;2024-03-02T01:51:09;21.40;;;11.80;;
78838;SDS011;68405;47.190;27.558;2024-03-02T01:53:38;18.60;;;10.30;;
78838;SDS011;68405;47.190;27.558;2024-03-02T01:56:07;24.40;;;12.10;;
78838;SDS011;68405;47.190;27.558;2024-03-02T01:58:35;17.80;;;10.80;;
78838;SDS011;68405;47.190;27.558;2024-03-02T02:01:04;17.30;;;10.40;;
78838;SDS011;68405;47.190;27.558;2024-03-02T02:03:33;19.80;;;11.10;;
78838;SDS011;68405;47.190;27.558;2024-03-02T02:06:03;22.20;;;11.60;;
78838;SDS011;68405;47.190;27.558;2024-03-02T02:08:32;18.50;;;11.10;;
78838;SDS011;68405;47.190;27.558;2024-03-02T02:11:02;18.90;;;11.00;;
78838;SDS011;68405;47.190;27.558;2024-03-02T02:13:31;18.10;;;9.70;;
78838;SDS011;68405;47.190;27.558;2024-03-02T02:16:05;16.50;;;11.10;;
78838;SDS011;68405;47.190;27.558;2024-03-02T02:18:34;18.60;;;11.20;;
78838;SDS011;68405;47.190;27.558;2024-03-02T02:21:03;17.60;;;10.60;;
78838;SDS011;68405;47.190;27.558;2024-03-02T02:23:32;14.80;;;8.50;;
78838;SDS011;68405;47.190;27.558;2024-03-02T02:26:01;20.10;;;10.80;;
78838;SDS011;68405;47.190;27.558;2024-03-02T02:28:30;19.70;;;11.00;;
78838;SDS011;68405;47.190;27.558;2024-03-02T02:30:59;19.40;;;9.40;;
78838;SDS011;68405;47.190;27.558;2024-03-02T02:35:56;17.80;;;9.90;;
78838;SDS011;68405;47.190;27.558;2024-03-02T02:38:24;19.10;;;10.40;;
78838;SDS011;68405;47.190;27.558;2024-03-02T02:40:53;18.00;;;8.80;;
78838;SDS011;68405;47.190;27.558;2024-03-02T02:43:22;15.70;;;8.70;;
78838;SDS011;68405;47.190;27.558;2024-03-02T02:45:51;13.00;;;7.10;;
78838;SDS011;68405;47.190;27.558;2024-03-02T02:48:20;17.60;;;9.90;;
78838;SDS011;68405;47.190;27.558;2024-03-02T02:50:49;12.80;;;8.40;;
78838;SDS011;68405;47.190;27.558;2024-03-02T02:53:18;15.30;;;9.60;;
78838;SDS011;68405;47.190;27.558;2024-03-02T02:55:47;16.50;;;9.80;;
78838;SDS011;68405;47.190;27.558;2024-03-02T02:58:16;22.00;;;10.80;;
78838;SDS011;68405;47.190;27.558;2024-03-02T03:00:45;15.90;;;9.60;;
78838;SDS011;68405;47.190;27.558;2024-03-02T03:03:14;19.50;;;11.80;;
78838;SDS011;68405;47.190;27.558;2024-03-02T03:05:43;17.90;;;8.90;;
78838;SDS011;68405;47.190;27.558;2024-03-02T03:08:11;20.20;;;8.70;;
78838;SDS011;68405;47.190;27.558;2024-03-02T03:10:40;19.30;;;10.50;;
78838;SDS011;68405;47.190;27.558;2024-03-02T03:13:09;17.80;;;9.80;;
78838;SDS011;68405;47.190;27.558;2024-03-02T03:15:38;17.50;;;10.50;;
78838;SDS011;68405;47.190;27.558;2024-03-02T03:18:07;16.30;;;10.00;;
78838;SDS011;68405;47.190;27.558;2024-03-02T03:20:37;17.20;;;10.60;;
78838;SDS011;68405;47.190;27.558;2024-03-02T03:23:06;17.30;;;9.40;;
78838;SDS011;68405;47.190;27.558;2024-03-02T03:25:35;15.30;;;8.20;;
78838;SDS011;68405;47.190;27.558;2024-03-02T03:28:04;10.80;;;5.90;;
78838;SDS011;68405;47.190;27.558;2024-03-02T03:30:33;14.50;;;8.50;;
78838;SDS011;68405;47.190;27.558;2024-03-02T03:33:03;15.90;;;9.10;;
78838;SDS011;68405;47.190;27.558;2024-03-02T03:35:32;15.10;;;8.50;;
78838;SDS011;68405;47.190;27.558;2024-03-02T03:38:02;12.70;;;8.70;;
78838;SDS011;68405;47.190;27.558;2024-03-02T03:40:31;19.60;;;11.10;;
78838;SDS011;68405;47.190;27.558;2024-03-02T03:45:27;19.70;;;10.40;;
78838;SDS011;68405;47.190;27.558;2024-03-02T03:47:57;18.30;;;10.30;;
78838;SDS011;68405;47.190;27.558;2024-03-02T03:50:26;16.10;;;9.40;;
78838;SDS011;68405;47.190;27.558;2024-03-02T03:52:54;15.70;;;9.50;;
78838;SDS011;68405;47.190;27.558;2024-03-02T03:55:23;18.70;;;10.70;;
78838;SDS011;68405;47.190;27.558;2024-03-02T03:57:52;23.60;;;11.90;;
78838;SDS011;68405;47.190;27.558;2024-03-02T04:00:22;17.50;;;9.90;;
78838;SDS011;68405;47.190;27.558;2024-03-02T04:02:50;12.60;;;7.00;;
78838;SDS011;68405;47.190;27.558;2024-03-02T04:05:19;15.40;;;8.00;;
78838;SDS011;68405;47.190;27.558;2024-03-02T04:07:48;15.80;;;9.80;;
78838;SDS011;68405;47.190;27.558;2024-03-02T04:10:17;18.20;;;10.60;;
78838;SDS011;68405;47.190;27.558;2024-03-02T04:12:48;15.50;;;9.70;;
78838;SDS011;68405;47.190;27.558;2024-03-02T04:15:17;16.60;;;8.40;;
78838;SDS011;68405;47.190;27.558;2024-03-02T04:17:46;13.30;;;8.10;;
78838;SDS011;68405;47.190;27.558;2024-03-02T04:22:43;15.30;;;9.00;;
78838;SDS011;68405;47.190;27.558;2024-03-02T04:27:39;11.60;;;6.90;;
78838;SDS011;68405;47.190;27.558;2024-03-02T04:30:08;15.20;;;8.10;;
78838;SDS011;68405;47.190;27.558;2024-03-02T04:32:38;15.00;;;8.70;;
78838;SDS011;68405;47.190;27.558;2024-03-02T04:35:08;10.00;;;7.30;;
78838;SDS011;68405;47.190;27.558;2024-03-02T04:37:37;18.90;;;9.70;;
78838;SDS011;68405;47.190;27.558;2024-03-02T04:40:07;14.70;;;8.30;;
78838;SDS011;68405;47.190;27.558;2024-03-02T04:42:37;12.70;;;8.30;;
78838;SDS011;68405;47.190;27.558;2024-03-02T04:45:07;17.70;;;10.40;;
78838;SDS011;68405;47.190;27.558;2024-03-02T04:47:36;12.70;;;7.70;;
78838;SDS011;68405;47.190;27.558;2024-03-02T04:50:06;18.80;;;9.00;;
78838;SDS011;68405;47.190;27.558;2024-03-02T04:52:36;19.70;;;8.50;;
78838;SDS011;68405;47.190;27.558;2024-03-02T04:57:56;11.30;;;7.00;;
78838;SDS011;68405;47.190;27.558;2024-03-02T05:00:25;18.50;;;10.60;;
78838;SDS011;68405;47.190;27.558;2024-03-02T05:02:54;14.20;;;8.40;;
78838;SDS011;68405;47.190;27.558;2024-03-02T05:05:23;17.70;;;9.30;;
78838;SDS011;68405;47.190;27.558;2024-03-02T05:07:51;22.60;;;10.40;;
78838;SDS011;68405;47.190;27.558;2024-03-02T05:10:20;19.00;;;10.50;;
78838;SDS011;68405;47.190;27.558;2024-03-02T05:12:51;22.30;;;9.30;;
78838;SDS011;68405;47.190;27.558;2024-03-02T05:15:26;12.20;;;7.60;;
78838;SDS011;68405;47.190;27.558;2024-03-02T05:17:55;19.20;;;10.20;;
78838;SDS011;68405;47.190;27.558;2024-03-02T05:20:24;16.00;;;9.40;;
78838;SDS011;68405;47.190;27.558;2024-03-02T05:22:53;17.20;;;10.30;;
78838;SDS011;68405;47.190;27.558;2024-03-02T05:25:22;18.50;;;10.90;;
78838;SDS011;68405;47.190;27.558;2024-03-02T05:27:51;9.60;;;5.60;;
78838;SDS011;68405;47.190;27.558;2024-03-02T05:30:20;17.40;;;8.50;;
78838;SDS011;68405;47.190;27.558;2024-03-02T05:32:49;17.30;;;9.80;;
78838;SDS011;68405;47.190;27.558;2024-03-02T05:35:18;18.50;;;9.30;;
78838;SDS011;68405;47.190;27.558;2024-03-02T05:37:47;17.30;;;9.80;;
78838;SDS011;68405;47.190;27.558;2024-03-02T05:40:16;15.30;;;9.00;;
78838;SDS011;68405;47.190;27.558;2024-03-02T05:42:45;16.40;;;9.90;;
78838;SDS011;68405;47.190;27.558;2024-03-02T05:45:14;12.20;;;8.10;;
78838;SDS011;68405;47.190;27.558;2024-03-02T05:47:43;17.70;;;9.60;;
78838;SDS011;68405;47.190;27.558;2024-03-02T05:50:12;14.30;;;8.70;;
78838;SDS011;68405;47.190;27.558;2024-03-02T05:52:41;15.80;;;9.50;;
78838;SDS011;68405;47.190;27.558;2024-03-02T05:55:10;15.50;;;8.90;;
78838;SDS011;68405;47.190;27.558;2024-03-02T05:57:39;17.70;;;10.40;;
78838;SDS011;68405;47.190;27.558;2024-03-02T06:00:20;21.80;;;11.50;;
78838;SDS011;68405;47.190;27.558;2024-03-02T06:02:48;20.50;;;11.00;;
78838;SDS011;68405;47.190;27.558;2024-03-02T06:05:17;13.80;;;7.80;;
78838;SDS011;68405;47.190;27.558;2024-03-02T06:07:46;15.80;;;10.10;;
78838;SDS011;68405;47.190;27.558;2024-03-02T06:10:15;18.10;;;10.30;;
78838;SDS011;68405;47.190;27.558;2024-03-02T06:12:44;11.70;;;7.60;;
78838;SDS011;68405;47.190;27.558;2024-03-02T06:15:13;17.00;;;8.70;;
78838;SDS011;68405;47.190;27.558;2024-03-02T06:17:42;13.20;;;8.30;;
78838;SDS011;68405;47.190;27.558;2024-03-02T06:20:11;17.10;;;9.20;;
78838;SDS011;68405;47.190;27.558;2024-03-02T06:22:40;14.30;;;9.00;;
78838;SDS011;68405;47.190;27.558;2024-03-02T06:25:09;16.40;;;8.50;;
78838;SDS011;68405;47.190;27.558;2024-03-02T06:27:37;13.30;;;7.90;;
78838;SDS011;68405;47.190;27.558;2024-03-02T06:30:07;14.90;;;7.30;;
78838;SDS011;68405;47.190;27.558;2024-03-02T06:32:37;15.10;;;8.40;;
78838;SDS011;68405;47.190;27.558;2024-03-02T06:37:36;18.60;;;10.10;;
78838;SDS011;68405;47.190;27.558;2024-03-02T06:40:07;17.90;;;10.40;;
78838;SDS011;68405;47.190;27.558;2024-03-02T06:42:37;16.90;;;9.70;;
78838;SDS011;68405;47.190;27.558;2024-03-02T06:45:06;18.90;;;9.20;;
78838;SDS011;68405;47.190;27.558;2024-03-02T06:47:35;17.10;;;9.90;;
78838;SDS011;68405;47.190;27.558;2024-03-02T06:50:04;18.70;;;10.30;;
78838;SDS011;68405;47.190;27.558;2024-03-02T06:52:34;16.00;;;8.60;;
78838;SDS011;68405;47.190;27.558;2024-03-02T06:55:03;16.30;;;9.50;;
78838;SDS011;68405;47.190;27.558;2024-03-02T06:57:33;21.00;;;10.20;;
78838;SDS011;68405;47.190;27.558;2024-03-02T07:00:02;20.60;;;10.80;;
78838;SDS011;68405;47.190;27.558;2024-03-02T07:02:33;13.30;;;7.50;;
78838;SDS011;68405;47.190;27.558;2024-03-02T07:05:02;13.00;;;8.10;;
78838;SDS011;68405;47.190;27.558;2024-03-02T07:07:33;15.30;;;7.50;;
78838;SDS011;68405;47.190;27.558;2024-03-02T07:10:04;11.90;;;6.80;;
78838;SDS011;68405;47.190;27.558;2024-03-02T07:12:34;14.30;;;8.40;;
78838;SDS011;68405;47.190;27.558;2024-03-02T07:15:03;11.80;;;8.60;;
78838;SDS011;68405;47.190;27.558;2024-03-02T07:17:55;15.80;;;9.20;;
78838;SDS011;68405;47.190;27.558;2024-03-02T07:20:24;19.60;;;10.60;;
78838;SDS011;68405;47.190;27.558;2024-03-02T07:22:53;18.00;;;10.60;;
78838;SDS011;68405;47.190;27.558;2024-03-02T07:25:22;20.90;;;9.00;;
78838;SDS011;68405;47.190;27.558;2024-03-02T07:27:51;15.40;;;10.10;;
78838;SDS011;68405;47.190;27.558;2024-03-02T07:30:20;20.70;;;12.10;;
78838;SDS011;68405;47.190;27.558;2024-03-02T07:32:50;16.60;;;9.20;;
78838;SDS011;68405;47.190;27.558;2024-03-02T07:35:19;21.10;;;10.80;;
78838;SDS011;68405;47.190;27.558;2024-03-02T07:37:49;16.30;;;9.50;;
78838;SDS011;68405;47.190;27.558;2024-03-02T07:40:18;18.10;;;9.90;;
78838;SDS011;68405;47.190;27.558;2024-03-02T07:42:47;20.50;;;10.60;;
78838;SDS011;68405;47.190;27.558;2024-03-02T07:45:16;13.90;;;8.00;;
78838;SDS011;68405;47.190;27.558;2024-03-02T07:47:45;18.50;;;9.30;;
78838;SDS011;68405;47.190;27.558;2024-03-02T07:50:14;19.90;;;10.70;;
78838;SDS011;68405;47.190;27.558;2024-03-02T07:52:43;15.40;;;9.40;;
78838;SDS011;68405;47.190;27.558;2024-03-02T07:55:12;18.20;;;9.40;;
78838;SDS011;68405;47.190;27.558;2024-03-02T07:57:41;19.50;;;10.60;;
78838;SDS011;68405;47.190;27.558;2024-03-02T08:00:10;19.60;;;9.40;;
78838;SDS011;68405;47.190;27.558;2024-03-02T08:02:41;18.70;;;9.90;;
78838;SDS011;68405;47.190;27.558;2024-03-02T08:05:10;15.40;;;9.20;;
78838;SDS011;68405;47.190;27.558;2024-03-02T08:07:38;16.60;;;9.40;;
78838;SDS011;68405;47.190;27.558;2024-03-02T08:10:08;20.00;;;10.80;;
78838;SDS011;68405;47.190;27.558;2024-03-02T08:12:37;16.00;;;9.90;;
78838;SDS011;68405;47.190;27.558;2024-03-02T08:15:07;18.70;;;11.20;;
78838;SDS011;68405;47.190;27.558;2024-03-02T08:17:36;14.60;;;9.10;;
78838;SDS011;68405;47.190;27.558;2024-03-02T08:20:06;17.90;;;10.40;;
78838;SDS011;68405;47.190;27.558;2024-03-02T08:22:36;23.20;;;10.90;;
78838;SDS011;68405;47.190;27.558;2024-03-02T08:25:05;19.40;;;10.30;;
78838;SDS011;68405;47.190;27.558;2024-03-02T08:27:36;19.90;;;9.80;;
78838;SDS011;68405;47.190;27.558;2024-03-02T08:30:06;16.80;;;10.20;;
78838;SDS011;68405;47.190;27.558;2024-03-02T08:32:37;16.40;;;8.70;;
78838;SDS011;68405;47.190;27.558;2024-03-02T08:35:07;13.90;;;9.00;;
78838;SDS011;68405;47.190;27.558;2024-03-02T08:37:37;18.30;;;10.60;;
78838;SDS011;68405;47.190;27.558;2024-03-02T08:40:09;16.40;;;9.30;;
78838;SDS011;68405;47.190;27.558;2024-03-02T08:42:39;22.90;;;12.70;;
78838;SDS011;68405;47.190;27.558;2024-03-02T08:45:08;25.00;;;13.50;;
78838;SDS011;68405;47.190;27.558;2024-03-02T08:47:37;19.00;;;10.90;;
78838;SDS011;68405;47.190;27.558;2024-03-02T08:50:07;19.70;;;10.30;;
78838;SDS011;68405;47.190;27.558;2024-03-02T08:52:36;18.30;;;10.30;;
78838;SDS011;68405;47.190;27.558;2024-03-02T08:55:06;22.40;;;10.80;;
78838;SDS011;68405;47.190;27.558;2024-03-02T08:57:36;22.20;;;11.20;;
78838;SDS011;68405;47.190;27.558;2024-03-02T09:00:06;19.30;;;10.30;;
78838;SDS011;68405;47.190;27.558;2024-03-02T09:02:36;15.50;;;9.60;;
78838;SDS011;68405;47.190;27.558;2024-03-02T09:05:06;19.60;;;11.00;;
78838;SDS011;68405;47.190;27.558;2024-03-02T09:07:35;22.40;;;12.20;;
78838;SDS011;68405;47.190;27.558;2024-03-02T09:10:05;23.00;;;11.90;;
78838;SDS011;68405;47.190;27.558;2024-03-02T09:12:36;21.90;;;12.20;;
78838;SDS011;68405;47.190;27.558;2024-03-02T09:15:06;19.50;;;11.90;;
78838;SDS011;68405;47.190;27.558;2024-03-02T09:17:35;23.50;;;11.80;;
78838;SDS011;68405;47.190;27.558;2024-03-02T09:20:05;22.80;;;11.20;;
78838;SDS011;68405;47.190;27.558;2024-03-02T09:22:34;22.00;;;11.80;;
78838;SDS011;68405;47.190;27.558;2024-03-02T09:25:03;19.00;;;11.00;;
78838;SDS011;68405;47.190;27.558;2024-03-02T09:27:36;22.20;;;12.40;;
78838;SDS011;68405;47.190;27.558;2024-03-02T09:30:06;20.90;;;11.00;;
78838;SDS011;68405;47.190;27.558;2024-03-02T09:32:37;20.60;;;12.10;;
78838;SDS011;68405;47.190;27.558;2024-03-02T09:35:06;22.90;;;12.60;;
78838;SDS011;68405;47.190;27.558;2024-03-02T09:37:35;24.20;;;13.70;;
78838;SDS011;68405;47.190;27.558;2024-03-02T09:40:05;24.00;;;13.00;;
78838;SDS011;68405;47.190;27.558;2024-03-02T09:42:35;22.60;;;11.30;;
78838;SDS011;68405;47.190;27.558;2024-03-02T09:45:05;17.20;;;10.00;;
78838;SDS011;68405;47.190;27.558;2024-03-02T09:47:36;19.30;;;11.20;;
78838;SDS011;68405;47.190;27.558;2024-03-02T09:50:06;19.20;;;11.30;;
78838;SDS011;68405;47.190;27.558;2024-03-02T09:52:36;21.30;;;12.60;;
78838;SDS011;68405;47.190;27.558;2024-03-02T09:55:06;22.90;;;11.50;;
78838;SDS011;68405;47.190;27.558;2024-03-02T09:57:35;20.60;;;11.70;;
78838;SDS011;68405;47.190;27.558;2024-03-02T10:02:32;14.80;;;9.40;;
78838;SDS011;68405;47.190;27.558;2024-03-02T10:05:01;26.70;;;13.70;;
78838;SDS011;68405;47.190;27.558;2024-03-02T10:07:31;23.80;;;12.80;;
78838;SDS011;68405;47.190;27.558;2024-03-02T10:10:00;23.00;;;12.10;;
78838;SDS011;68405;47.190;27.558;2024-03-02T10:12:41;26.20;;;12.90;;
78838;SDS011;68405;47.190;27.558;2024-03-02T10:15:10;21.70;;;11.80;;
78838;SDS011;68405;47.190;27.558;2024-03-02T10:17:39;24.20;;;12.00;;
78838;SDS011;68405;47.190;27.558;2024-03-02T10:22:50;25.70;;;15.00;;
78838;SDS011;68405;47.190;27.558;2024-03-02T10:25:29;24.90;;;13.40;;
78838;SDS011;68405;47.190;27.558;2024-03-02T10:27:59;21.30;;;12.70;;
78838;SDS011;68405;47.190;27.558;2024-03-02T10:30:28;25.60;;;13.70;;
78838;SDS011;68405;47.190;27.558;2024-03-02T10:32:57;25.50;;;13.50;;
78838;SDS011;68405;47.190;27.558;2024-03-02T10:35:25;19.30;;;11.90;;
78838;SDS011;68405;47.190;27.558;2024-03-02T10:37:54;21.50;;;11.90;;
78838;SDS011;68405;47.190;27.558;2024-03-02T10:40:26;23.90;;;12.70;;
78838;SDS011;68405;47.190;27.558;2024-03-02T10:42:54;23.30;;;11.80;;
78838;SDS011;68405;47.190;27.558;2024-03-02T10:45:23;23.00;;;12.50;;
78838;SDS011;68405;47.190;27.558;2024-03-02T10:47:52;21.10;;;12.20;;
78838;SDS011;68405;47.190;27.558;2024-03-02T10:50:22;19.90;;;11.00;;
78838;SDS011;68405;47.190;27.558;2024-03-02T10:52:51;22.00;;;13.30;;
78838;SDS011;68405;47.190;27.558;2024-03-02T10:55:20;23.50;;;13.70;;
78838;SDS011;68405;47.190;27.558;2024-03-02T10:57:51;21.80;;;13.00;;
78838;SDS011;68405;47.190;27.558;2024-03-02T11:00:21;21.10;;;13.00;;
78838;SDS011;68405;47.190;27.558;2024-03-02T11:02:58;23.10;;;13.10;;
78838;SDS011;68405;47.190;27.558;2024-03-02T11:05:33;26.80;;;13.20;;
78838;SDS011;68405;47.190;27.558;2024-03-02T11:08:05;23.60;;;13.00;;
78838;SDS011;68405;47.190;27.558;2024-03-02T11:10:41;21.80;;;13.10;;
78838;SDS011;68405;47.190;27.558;2024-03-02T11:15:42;24.80;;;12.60;;
78838;SDS011;68405;47.190;27.558;2024-03-02T11:18:12;21.90;;;13.30;;
78838;SDS011;68405;47.190;27.558;2024-03-02T11:20:41;28.90;;;14.80;;
78838;SDS011;68405;47.190;27.558;2024-03-02T11:23:10;25.40;;;14.20;;
78838;SDS011;68405;47.190;27.558;2024-03-02T11:25:39;29.10;;;14.90;;
78838;SDS011;68405;47.190;27.558;2024-03-02T11:28:08;20.50;;;11.40;;
78838;SDS011;68405;47.190;27.558;2024-03-02T11:30:49;24.60;;;13.00;;
78838;SDS011;68405;47.190;27.558;2024-03-02T11:33:26;19.50;;;11.60;;
78838;SDS011;68405;47.190;27.558;2024-03-02T11:35:56;32.10;;;13.90;;
78838;SDS011;68405;47.190;27.558;2024-03-02T11:38:29;24.00;;;13.30;;
78838;SDS011;68405;47.190;27.558;2024-03-02T11:41:00;30.00;;;14.30;;
78838;SDS011;68405;47.190;27.558;2024-03-02T11:43:30;26.20;;;13.30;;
78838;SDS011;68405;47.190;27.558;2024-03-02T11:46:00;25.30;;;13.40;;
78838;SDS011;68405;47.190;27.558;2024-03-02T11:48:33;23.70;;;12.90;;
78838;SDS011;68405;47.190;27.558;2024-03-02T11:51:04;26.10;;;13.30;;
78838;SDS011;68405;47.190;27.558;2024-03-02T11:53:33;24.30;;;14.20;;
78838;SDS011;68405;47.190;27.558;2024-03-02T11:56:02;23.00;;;14.60;;
78838;SDS011;68405;47.190;27.558;2024-03-02T11:58:36;25.60;;;14.20;;
78838;SDS011;68405;47.190;27.558;2024-03-02T12:01:07;25.90;;;13.80;;
78838;SDS011;68405;47.190;27.558;2024-03-02T12:03:37;22.20;;;12.70;;
78838;SDS011;68405;47.190;27.558;2024-03-02T12:06:06;23.40;;;13.20;;
78838;SDS011;68405;47.190;27.558;2024-03-02T12:08:35;21.40;;;12.80;;
78838;SDS011;68405;47.190;27.558;2024-03-02T12:11:05;24.50;;;13.60;;
78838;SDS011;68405;47.190;27.558;2024-03-02T12:13:34;23.00;;;13.80;;
78838;SDS011;68405;47.190;27.558;2024-03-02T12:16:03;23.90;;;13.30;;
78838;SDS011;68405;47.190;27.558;2024-03-02T12:18:33;30.00;;;15.40;;
78838;SDS011;68405;47.190;27.558;2024-03-02T12:21:02;26.10;;;13.20;;
78838;SDS011;68405;47.190;27.558;2024-03-02T12:23:33;25.80;;;15.10;;
78838;SDS011;68405;47.190;27.558;2024-03-02T12:26:03;26.60;;;14.30;;
78838;SDS011;68405;47.190;27.558;2024-03-02T12:28:32;21.70;;;13.70;;
78838;SDS011;68405;47.190;27.558;2024-03-02T12:31:00;22.90;;;13.40;;
78838;SDS011;68405;47.190;27.558;2024-03-02T12:33:29;24.50;;;15.20;;
78838;SDS011;68405;47.190;27.558;2024-03-02T12:35:58;24.30;;;14.30;;
78838;SDS011;68405;47.190;27.558;2024-03-02T12:38:27;23.70;;;13.00;;
78838;SDS011;68405;47.190;27.558;2024-03-02T12:40:56;21.90;;;13.10;;
78838;SDS011;68405;47.190;27.558;2024-03-02T12:43:29;19.30;;;11.10;;
78838;SDS011;68405;47.190;27.558;2024-03-02T12:45:58;21.60;;;12.40;;
78838;SDS011;68405;47.190;27.558;2024-03-02T12:48:27;22.50;;;13.60;;
78838;SDS011;68405;47.190;27.558;2024-03-02T12:50:56;29.20;;;13.70;;
78838;SDS011;68405;47.190;27.558;2024-03-02T12:53:25;24.30;;;13.40;;
78838;SDS011;68405;47.190;27.558;2024-03-02T12:55:54;25.30;;;14.40;;
78838;SDS011;68405;47.190;27.558;2024-03-02T12:58:24;27.90;;;14.70;;
78838;SDS011;68405;47.190;27.558;2024-03-02T13:01:05;22.00;;;13.40;;
78838;SDS011;68405;47.190;27.558;2024-03-02T13:03:36;25.50;;;13.10;;
78838;SDS011;68405;47.190;27.558;2024-03-02T13:06:05;29.00;;;14.00;;
78838;SDS011;68405;47.190;27.558;2024-03-02T13:08:35;28.60;;;15.70;;
78838;SDS011;68405;47.190;27.558;2024-03-02T13:11:04;28.10;;;16.20;;
78838;SDS011;68405;47.190;27.558;2024-03-02T13:13:33;23.50;;;14.00;;
78838;SDS011;68405;47.190;27.558;2024-03-02T13:16:02;26.90;;;15.40;;
78838;SDS011;68405;47.190;27.558;2024-03-02T13:18:35;32.00;;;14.80;;
78838;SDS011;68405;47.190;27.558;2024-03-02T13:21:04;22.70;;;12.20;;
78838;SDS011;68405;47.190;27.558;2024-03-02T13:23:33;25.60;;;12.70;;
78838;SDS011;68405;47.190;27.558;2024-03-02T13:26:02;24.00;;;13.70;;
78838;SDS011;68405;47.190;27.558;2024-03-02T13:28:31;24.60;;;13.00;;
78838;SDS011;68405;47.190;27.558;2024-03-02T13:31:00;26.10;;;12.00;;
78838;SDS011;68405;47.190;27.558;2024-03-02T13:33:29;23.90;;;12.60;;
78838;SDS011;68405;47.190;27.558;2024-03-02T13:35:59;21.00;;;12.50;;
78838;SDS011;68405;47.190;27.558;2024-03-02T13:38:29;22.40;;;12.60;;
78838;SDS011;68405;47.190;27.558;2024-03-02T13:40:58;23.40;;;13.50;;
78838;SDS011;68405;47.190;27.558;2024-03-02T13:43:28;25.30;;;12.50;;
78838;SDS011;68405;47.190;27.558;2024-03-02T13:45:58;25.40;;;14.30;;
78838;SDS011;68405;47.190;27.558;2024-03-02T13:48:27;23.10;;;11.90;;
78838;SDS011;68405;47.190;27.558;2024-03-02T13:50:57;26.00;;;12.20;;
78838;SDS011;68405;47.190;27.558;2024-03-02T13:53:26;21.40;;;11.70;;
78838;SDS011;68405;47.190;27.558;2024-03-02T13:55:55;21.00;;;11.40;;
78838;SDS011;68405;47.190;27.558;2024-03-02T13:58:24;25.20;;;12.40;;
78838;SDS011;68405;47.190;27.558;2024-03-02T14:00:53;22.50;;;12.10;;
78838;SDS011;68405;47.190;27.558;2024-03-02T14:03:23;22.20;;;12.50;;
78838;SDS011;68405;47.190;27.558;2024-03-02T14:05:54;30.20;;;15.00;;
78838;SDS011;68405;47.190;27.558;2024-03-02T14:08:23;23.00;;;13.40;;
78838;SDS011;68405;47.190;27.558;2024-03-02T14:10:51;26.80;;;13.90;;
78838;SDS011;68405;47.190;27.558;2024-03-02T14:13:21;25.70;;;15.20;;
78838;SDS011;68405;47.190;27.558;2024-03-02T14:15:49;24.60;;;11.20;;
78838;SDS011;68405;47.190;27.558;2024-03-02T14:18:18;31.80;;;16.10;;
78838;SDS011;68405;47.190;27.558;2024-03-02T14:20:48;25.50;;;14.80;;
78838;SDS011;68405;47.190;27.558;2024-03-02T14:23:19;26.60;;;14.90;;
78838;SDS011;68405;47.190;27.558;2024-03-02T14:25:48;24.80;;;14.10;;
78838;SDS011;68405;47.190;27.558;2024-03-02T14:28:17;21.10;;;12.60;;
78838;SDS011;68405;47.190;27.558;2024-03-02T14:30:46;25.40;;;13.30;;
78838;SDS011;68405;47.190;27.558;2024-03-02T14:33:17;26.30;;;14.00;;
78838;SDS011;68405;47.190;27.558;2024-03-02T14:35:46;23.50;;;13.30;;
78838;SDS011;68405;47.190;27.558;2024-03-02T14:38:15;23.80;;;13.80;;
78838;SDS011;68405;47.190;27.558;2024-03-02T14:40:44;24.60;;;12.40;;
78838;SDS011;68405;47.190;27.558;2024-03-02T14:43:13;25.40;;;12.60;;
78838;SDS011;68405;47.190;27.558;2024-03-02T14:45:42;22.70;;;14.70;;
78838;SDS011;68405;47.190;27.558;2024-03-02T14:48:11;27.90;;;15.20;;
78838;SDS011;68405;47.190;27.558;2024-03-02T14:50:41;22.20;;;13.30;;
78838;SDS011;68405;47.190;27.558;2024-03-02T14:53:10;24.80;;;14.60;;
78838;SDS011;68405;47.190;27.558;2024-03-02T14:55:39;24.40;;;13.10;;
78838;SDS011;68405;47.190;27.558;2024-03-02T14:58:08;23.00;;;13.00;;